createdAt,value
2022-09-03T00:00:37.914Z,25.24
2022-09-03T00:03:23.190Z,25.24
2022-09-03T00:06:18.600Z,25.26
2022-09-03T00:09:18.721Z,25.21
2022-09-03T00:12:11.272Z,25.23
2022-09-03T00:14:47.847Z,25.20
2022-09-03T00:17:21.436Z,25.24
2022-09-03T00:20:12.958Z,25.25
2022-09-03T00:22:47.375Z,24.98
2022-09-03T00:25:43.704Z,25.13
2022-09-03T00:28:25.292Z,25.17
2022-09-03T00:31:15.158Z,25.16
2022-09-03T00:33:48.264Z,25.17
2022-09-03T00:36:45.032Z,25.16
2022-09-03T00:39:21.104Z,25.20
2022-09-03T00:42:28.965Z,25.21
2022-09-03T00:45:21.821Z,25.22
2022-09-03T00:48:09.245Z,25.21
2022-09-03T00:51:01.175Z,25.21
2022-09-03T00:53:51.478Z,24.95
2022-09-03T00:56:55.575Z,25.08
2022-09-03T00:59:41.482Z,25.17
2022-09-03T01:02:34.361Z,25.21
2022-09-03T01:05:34.846Z,25.20
2022-09-03T01:08:33.686Z,25.16
2022-09-03T01:11:52.985Z,25.19
2022-09-03T01:15:01.143Z,25.16
2022-09-03T01:17:54.593Z,25.17
2022-09-03T01:21:26.988Z,25.11
2022-09-03T01:24:23.284Z,25.10
2022-09-03T01:27:25.167Z,25.09
2022-09-03T01:30:09.544Z,25.07
2022-09-03T01:33:15.363Z,25.05
2022-09-03T01:36:12.841Z,25.02
2022-09-03T01:38:57.070Z,24.98
2022-09-03T01:42:31.504Z,25.00
2022-09-03T01:45:17.997Z,24.97
2022-09-03T01:48:13.827Z,24.95
2022-09-03T01:50:47.415Z,24.95
2022-09-03T01:54:21.336Z,24.96
2022-09-03T01:57:19.161Z,24.95
2022-09-03T02:00:14.815Z,24.89
2022-09-03T02:02:49.477Z,24.91
2022-09-03T02:05:29.318Z,24.94
2022-09-03T02:08:01.799Z,24.89
2022-09-03T02:10:39.658Z,24.89
2022-09-03T02:13:31.598Z,24.87
2022-09-03T02:16:33.452Z,24.87
2022-09-03T02:19:07.669Z,24.83
2022-09-03T02:21:40.754Z,24.86
2022-09-03T02:24:09.847Z,24.83
2022-09-03T02:26:38.019Z,24.84
2022-09-03T02:29:06.603Z,24.84
2022-09-03T02:31:34.778Z,24.81
2022-09-03T02:34:03.663Z,24.79
2022-09-03T02:36:39.413Z,24.77
2022-09-03T02:39:07.997Z,24.75
2022-09-03T02:41:36.290Z,24.70
2022-09-03T02:44:16.938Z,24.75
2022-09-03T02:46:49.931Z,24.66
2022-09-03T02:49:18.201Z,24.66
2022-09-03T02:51:46.680Z,24.64
2022-09-03T02:54:18.923Z,24.61
2022-09-03T02:56:50.199Z,24.60
2022-09-03T02:59:20.106Z,24.62
2022-09-03T03:01:48.800Z,24.62
2022-09-03T03:04:17.074Z,24.58
2022-09-03T03:06:47.780Z,24.58
2022-09-03T03:09:16.897Z,24.52
2022-09-03T03:11:45.370Z,24.57
2022-09-03T03:14:13.659Z,24.55
2022-09-03T03:16:42.196Z,24.56
2022-09-03T03:19:11.117Z,24.54
2022-09-03T03:21:40.212Z,24.53
2022-09-03T03:24:09.210Z,24.54
2022-09-03T03:26:37.585Z,24.52
2022-09-03T03:29:05.857Z,24.48
2022-09-03T03:31:35.153Z,24.50
2022-09-03T03:34:04.452Z,24.48
2022-09-03T03:36:34.575Z,24.42
2022-09-03T03:39:04.488Z,24.40
2022-09-03T03:41:37.995Z,24.44
2022-09-03T03:44:08.406Z,24.41
2022-09-03T03:46:39.855Z,24.40
2022-09-03T03:49:09.052Z,24.37
2022-09-03T03:51:39.274Z,24.37
2022-09-03T03:54:08.475Z,24.15
2022-09-03T03:56:36.648Z,24.26
2022-09-03T03:59:05.550Z,24.33
2022-09-03T04:01:34.023Z,24.31
2022-09-03T04:04:02.906Z,24.27
2022-09-03T04:06:31.381Z,24.30
2022-09-03T04:08:59.867Z,24.28
2022-09-03T04:11:28.449Z,24.28
2022-09-03T04:13:56.721Z,24.29
2022-09-03T04:16:28.631Z,24.29
2022-09-03T04:18:57.981Z,24.32
2022-09-03T04:21:29.632Z,24.30
2022-09-03T04:23:59.346Z,24.31
2022-09-03T04:26:31.638Z,24.35
2022-09-03T04:29:03.372Z,24.31
2022-09-03T04:31:34.211Z,24.24
2022-09-03T04:34:02.580Z,24.31
2022-09-03T04:36:31.266Z,24.27
2022-09-03T04:39:04.863Z,24.31
2022-09-03T04:41:33.147Z,24.24
2022-09-03T04:44:01.623Z,24.25
2022-09-03T04:46:34.148Z,24.23
2022-09-03T04:49:02.986Z,24.20
2022-09-03T04:51:31.926Z,24.17
2022-09-03T04:54:02.512Z,24.15
2022-09-03T04:56:34.471Z,24.10
2022-09-03T04:59:09.086Z,24.13
2022-09-03T05:01:40.023Z,24.09
2022-09-03T05:04:09.015Z,24.04
2022-09-03T05:06:37.803Z,24.04
2022-09-03T05:09:06.796Z,24.03
2022-09-03T05:11:34.968Z,24.01
2022-09-03T05:14:06.117Z,24.01
2022-09-03T05:16:34.780Z,23.94
2022-09-03T05:19:04.097Z,23.97
2022-09-03T05:21:32.574Z,23.96
2022-09-03T05:24:03.105Z,23.92
2022-09-03T05:26:39.676Z,23.98
2022-09-03T05:29:09.591Z,23.90
2022-09-03T05:31:39.577Z,23.88
2022-09-03T05:34:10.209Z,23.86
2022-09-03T05:36:49.261Z,23.92
2022-09-03T05:39:17.691Z,24.00
2022-09-03T05:41:45.913Z,24.02
2022-09-03T05:44:14.798Z,24.02
2022-09-03T05:46:42.869Z,24.06
2022-09-03T05:49:12.102Z,24.03
2022-09-03T05:51:41.163Z,24.01
2022-09-03T05:54:10.622Z,24.01
2022-09-03T05:56:42.673Z,24.08
2022-09-03T05:59:11.927Z,24.08
2022-09-03T06:01:44.005Z,24.11
2022-09-03T06:04:20.870Z,24.08
2022-09-03T06:06:50.079Z,24.12
2022-09-03T06:09:23.321Z,24.16
2022-09-03T06:11:53.985Z,24.13
2022-09-03T06:14:22.362Z,24.13
2022-09-03T06:16:53.375Z,24.14
2022-09-03T06:19:23.126Z,24.11
2022-09-03T06:21:51.794Z,24.12
2022-09-03T06:24:26.206Z,24.17
2022-09-03T06:27:16.306Z,24.10
2022-09-03T06:29:51.037Z,24.13
2022-09-03T06:32:20.221Z,24.12
2022-09-03T06:34:48.702Z,24.13
2022-09-03T06:37:16.883Z,24.13
2022-09-03T06:39:45.310Z,24.12
2022-09-03T06:42:14.449Z,24.14
2022-09-03T06:44:45.496Z,24.13
2022-09-03T06:47:13.871Z,24.14
2022-09-03T06:49:42.962Z,24.13
2022-09-03T06:52:11.544Z,24.10
2022-09-03T06:54:41.163Z,24.10
2022-09-03T06:57:09.731Z,24.10
2022-09-03T06:59:38.215Z,24.10
2022-09-03T07:02:08.630Z,24.09
2022-09-03T07:04:37.114Z,24.07
2022-09-03T07:07:05.398Z,24.09
2022-09-03T07:09:36.430Z,24.07
2022-09-03T07:12:05.421Z,24.06
2022-09-03T07:14:34.619Z,24.06
2022-09-03T07:17:03.098Z,24.10
2022-09-03T07:19:31.679Z,24.05
2022-09-03T07:22:00.364Z,24.09
2022-09-03T07:24:29.768Z,24.09
2022-09-03T07:26:58.860Z,24.06
2022-09-03T07:29:28.095Z,24.00
2022-09-03T07:31:57.202Z,23.90
2022-09-03T07:34:29.535Z,23.78
2022-09-03T07:37:05.694Z,23.57
2022-09-03T07:39:34.691Z,23.33
2022-09-03T07:42:03.050Z,23.11
2022-09-03T07:44:31.426Z,22.91
2022-09-03T07:47:00.893Z,22.76
2022-09-03T07:49:29.516Z,22.62
2022-09-03T07:51:57.990Z,22.51
2022-09-03T07:54:27.513Z,22.37
2022-09-03T07:56:56.390Z,22.32
2022-09-03T07:59:26.092Z,22.26
2022-09-03T08:01:57.336Z,22.19
2022-09-03T08:04:25.716Z,22.11
2022-09-03T08:06:55.921Z,22.05
2022-09-03T08:09:24.208Z,21.98
2022-09-03T08:11:52.693Z,21.94
2022-09-03T08:14:22.195Z,21.88
2022-09-03T08:16:50.982Z,21.82
2022-09-03T08:19:22.634Z,21.83
2022-09-03T08:21:51.116Z,21.78
2022-09-03T08:24:21.970Z,21.79
2022-09-03T08:26:52.384Z,21.76
2022-09-03T08:29:22.200Z,21.71
2022-09-03T08:31:51.763Z,21.65
2022-09-03T08:34:20.692Z,21.56
2022-09-03T08:36:49.059Z,21.49
2022-09-03T08:39:17.205Z,21.39
2022-09-03T08:41:51.966Z,21.41
2022-09-03T08:44:45.537Z,21.42
2022-09-03T08:47:42.389Z,21.43
2022-09-03T08:50:12.600Z,21.46
2022-09-03T08:53:00.756Z,21.59
2022-09-03T08:55:47.033Z,21.65
2022-09-03T08:58:21.145Z,21.71
2022-09-03T09:01:22.536Z,21.89
2022-09-03T09:04:22.515Z,21.99
2022-09-03T09:07:19.665Z,22.12
2022-09-03T09:10:42.108Z,22.22
2022-09-03T09:14:01.401Z,22.36
2022-09-03T09:17:09.598Z,22.46
2022-09-03T09:20:19.027Z,22.53
2022-09-03T09:22:59.386Z,22.67
2022-09-03T09:25:30.325Z,22.73
2022-09-03T09:28:13.452Z,22.84
2022-09-03T09:30:43.052Z,22.87
2022-09-03T09:33:12.658Z,23.01
2022-09-03T09:35:43.084Z,23.04
2022-09-03T09:38:13.101Z,23.11
2022-09-03T09:40:45.885Z,23.21
2022-09-03T09:43:21.231Z,23.30
2022-09-03T09:45:52.672Z,23.31
2022-09-03T09:48:36.925Z,23.09
2022-09-03T09:51:14.104Z,23.30
2022-09-03T09:53:45.043Z,23.37
2022-09-03T09:56:26.018Z,23.46
2022-09-03T09:59:11.081Z,23.46
2022-09-03T10:01:42.988Z,23.47
2022-09-03T10:04:14.600Z,23.55
2022-09-03T10:07:00.183Z,23.59
2022-09-03T10:09:31.926Z,23.63
2022-09-03T10:12:24.682Z,23.85
2022-09-03T10:15:24.702Z,24.01
2022-09-03T10:18:11.410Z,24.11
2022-09-03T10:21:02.006Z,24.16
2022-09-03T10:23:39.703Z,24.22
2022-09-03T10:26:17.300Z,24.32
2022-09-03T10:28:56.775Z,24.34
2022-09-03T10:32:07.809Z,24.32
2022-09-03T10:35:00.458Z,24.40
2022-09-03T10:37:47.570Z,24.48
2022-09-03T10:40:40.332Z,24.49
2022-09-03T10:43:42.210Z,24.59
2022-09-03T10:46:18.470Z,24.45
2022-09-03T10:49:32.593Z,24.70
2022-09-03T10:52:12.767Z,24.80
2022-09-03T10:55:05.904Z,24.91
2022-09-03T10:58:28.580Z,24.99
2022-09-03T11:01:44.917Z,25.12
2022-09-03T11:04:55.115Z,25.24
2022-09-03T11:07:38.033Z,25.39
2022-09-03T11:10:39.997Z,25.54
2022-09-03T11:13:54.145Z,25.63
2022-09-03T11:16:29.895Z,25.74
2022-09-03T11:19:08.003Z,25.85
2022-09-03T11:21:42.009Z,25.89
2022-09-03T11:24:23.187Z,25.94
2022-09-03T11:27:00.906Z,25.99
2022-09-03T11:29:54.045Z,26.06
2022-09-03T11:32:55.475Z,26.13
2022-09-03T11:35:42.828Z,26.20
2022-09-03T11:38:18.259Z,26.31
2022-09-03T11:41:15.820Z,26.42
2022-09-03T11:43:45.324Z,26.49
2022-09-03T11:46:23.716Z,26.62
2022-09-03T11:49:04.608Z,26.69
2022-09-03T11:51:39.742Z,26.78
2022-09-03T11:54:13.752Z,26.87
2022-09-03T11:56:43.561Z,26.90
2022-09-03T11:59:24.842Z,26.95
2022-09-03T12:02:31.981Z,26.98
2022-09-03T12:05:26.110Z,27.02
2022-09-03T12:08:22.032Z,27.09
2022-09-03T12:10:55.032Z,27.13
2022-09-03T12:13:37.012Z,27.18
2022-09-03T12:16:20.267Z,27.22
2022-09-03T12:18:53.160Z,27.23
2022-09-03T12:21:21.729Z,27.23
2022-09-03T12:23:58.161Z,27.27
2022-09-03T12:26:28.310Z,27.22
2022-09-03T12:29:29.027Z,27.13
2022-09-03T12:32:19.930Z,27.13
2022-09-03T12:34:53.224Z,27.16
2022-09-03T12:40:28.447Z,27.22
2022-09-03T12:46:10.125Z,27.31
2022-09-03T12:48:43.634Z,27.35
2022-09-03T12:54:03.206Z,27.49
2022-09-03T12:56:33.910Z,27.59
2022-09-03T12:59:14.679Z,27.73
2022-09-03T13:01:51.851Z,27.78
2022-09-03T13:04:32.731Z,27.88
2022-09-03T13:07:14.111Z,27.99
2022-09-03T13:09:43.306Z,28.02
2022-09-03T13:12:43.735Z,28.18
2022-09-03T13:15:22.559Z,28.31
2022-09-03T13:18:05.474Z,28.48
2022-09-03T13:20:55.259Z,28.62
2022-09-03T13:23:41.960Z,28.70
2022-09-03T13:26:41.569Z,28.76
2022-09-03T13:29:45.993Z,28.81
2022-09-03T13:33:01.087Z,28.84
2022-09-03T13:36:05.386Z,28.90
2022-09-03T13:38:44.413Z,28.94
2022-09-03T13:41:46.892Z,29.02
2022-09-03T13:44:58.605Z,28.98
2022-09-03T13:48:09.876Z,28.89
2022-09-03T13:50:59.115Z,28.85
2022-09-03T13:54:05.206Z,28.78
2022-09-03T13:57:20.978Z,28.66
2022-09-03T13:59:58.193Z,28.62
2022-09-03T14:03:16.262Z,28.55
2022-09-03T14:06:27.178Z,28.45
2022-09-03T14:09:07.870Z,28.38
2022-09-03T14:11:55.370Z,28.36
2022-09-03T14:14:49.861Z,28.34
2022-09-03T14:17:47.422Z,28.30
2022-09-03T14:20:26.140Z,28.28
2022-09-03T14:23:07.216Z,28.22
2022-09-03T14:25:36.517Z,28.08
2022-09-03T14:28:37.369Z,28.07
2022-09-03T14:31:56.677Z,27.95
2022-09-03T14:34:52.454Z,27.88
2022-09-03T14:38:17.559Z,27.79
2022-09-03T14:41:12.858Z,27.68
2022-09-03T14:43:52.605Z,27.62
2022-09-03T14:46:45.560Z,27.51
2022-09-03T14:50:01.550Z,27.37
2022-09-03T14:52:54.915Z,27.32
2022-09-03T14:55:28.511Z,27.25
2022-09-03T14:58:38.670Z,27.21
2022-09-03T15:01:38.540Z,27.11
2022-09-03T15:04:33.933Z,27.09
2022-09-03T15:08:01.220Z,27.02
2022-09-03T15:10:37.772Z,26.96
2022-09-03T15:13:26.293Z,27.00
2022-09-03T15:16:54.082Z,26.90
2022-09-03T15:19:54.341Z,26.92
2022-09-03T15:22:49.907Z,26.87
2022-09-03T15:25:49.936Z,26.87
2022-09-03T15:28:34.443Z,26.89
2022-09-03T15:31:47.184Z,26.83
2022-09-03T15:34:32.867Z,26.81
2022-09-03T15:37:07.248Z,26.82
2022-09-03T15:39:41.627Z,26.85
2022-09-03T15:42:23.792Z,26.88
2022-09-03T15:45:18.085Z,26.90
2022-09-03T15:47:52.017Z,26.89
2022-09-03T15:50:33.167Z,26.98
2022-09-03T15:53:34.105Z,26.94
2022-09-03T15:56:29.326Z,26.93
2022-09-03T15:59:15.830Z,26.94
2022-09-03T16:02:24.831Z,26.94
2022-09-03T16:04:57.335Z,26.93
2022-09-03T16:07:40.159Z,26.99
2022-09-03T16:10:26.835Z,26.98
2022-09-03T16:13:25.491Z,26.98
2022-09-03T16:16:03.976Z,27.04
2022-09-03T16:18:52.573Z,27.04
2022-09-03T16:22:15.743Z,27.00
2022-09-03T16:25:13.903Z,26.94
2022-09-03T16:28:17.346Z,26.92
2022-09-03T16:31:15.238Z,26.92
2022-09-03T16:34:33.655Z,26.90
2022-09-03T16:37:53.302Z,26.96
2022-09-03T16:40:53.805Z,26.96
2022-09-03T16:43:40.661Z,27.00
2022-09-03T16:46:36.071Z,27.09
2022-09-03T16:49:22.042Z,27.16
2022-09-03T16:52:38.862Z,27.18
2022-09-03T16:55:25.424Z,27.23
2022-09-03T16:58:27.272Z,27.24
2022-09-03T17:01:07.634Z,27.24
2022-09-03T17:04:04.354Z,27.30
2022-09-03T17:06:57.262Z,27.27
2022-09-03T17:10:26.708Z,27.21
2022-09-03T17:13:17.857Z,27.17
2022-09-03T17:15:53.379Z,27.11
2022-09-03T17:18:50.708Z,27.06
2022-09-03T17:22:04.479Z,26.99
2022-09-03T17:25:05.957Z,26.89
2022-09-03T17:28:15.449Z,26.82
2022-09-03T17:31:16.666Z,26.73
2022-09-03T17:34:39.639Z,26.58
2022-09-03T17:37:52.328Z,26.50
2022-09-03T17:40:27.102Z,26.21
2022-09-03T17:43:15.813Z,26.38
2022-09-03T17:46:09.347Z,26.38
2022-09-03T17:48:53.217Z,26.32
2022-09-03T17:51:58.612Z,26.27
2022-09-03T17:54:52.033Z,26.17
2022-09-03T17:57:31.468Z,26.09
2022-09-03T18:00:08.759Z,26.06
2022-09-03T18:03:05.352Z,26.02
2022-09-03T18:06:37.199Z,25.87
2022-09-03T18:09:17.835Z,25.84
2022-09-03T18:11:55.086Z,25.81
2022-09-03T18:14:48.271Z,25.76
2022-09-03T18:17:37.863Z,25.71
2022-09-03T18:20:33.054Z,25.65
2022-09-03T18:23:49.270Z,25.56
2022-09-03T18:26:48.039Z,25.45
2022-09-03T18:29:54.212Z,25.38
2022-09-03T18:32:41.766Z,25.25
2022-09-03T18:35:30.443Z,25.22
2022-09-03T18:38:17.603Z,25.13
2022-09-03T18:41:32.396Z,25.14
2022-09-03T18:45:18.556Z,25.05
2022-09-03T18:48:49.408Z,24.89
2022-09-03T18:51:48.439Z,24.79
2022-09-03T18:54:57.213Z,24.77
2022-09-03T18:58:01.553Z,24.72
2022-09-03T19:00:54.280Z,24.64
2022-09-03T19:04:20.481Z,24.71
2022-09-03T19:07:38.424Z,24.63
2022-09-03T19:10:41.205Z,24.56
2022-09-03T19:13:46.486Z,24.49
2022-09-03T19:16:55.936Z,24.38
2022-09-03T19:20:28.828Z,24.25
2022-09-03T19:23:15.689Z,24.16
2022-09-03T19:26:02.986Z,24.13
2022-09-03T19:28:51.190Z,24.10
2022-09-03T19:32:00.416Z,24.10
2022-09-03T19:35:31.370Z,24.03
2022-09-03T19:38:58.763Z,24.04
2022-09-03T19:42:06.400Z,24.01
2022-09-03T19:45:44.955Z,24.00
2022-09-03T19:49:00.740Z,24.06
2022-09-03T19:52:26.020Z,24.03
2022-09-03T19:55:16.311Z,24.02
2022-09-03T19:58:26.127Z,24.03
2022-09-03T20:01:18.529Z,23.97
2022-09-03T20:04:05.393Z,23.94
2022-09-03T20:06:55.001Z,24.06
2022-09-03T20:09:48.041Z,24.09
2022-09-03T20:12:20.326Z,24.09
2022-09-03T20:14:48.412Z,24.09
2022-09-03T20:17:40.644Z,24.20
2022-09-03T20:20:41.988Z,24.22
2022-09-03T20:23:24.255Z,24.23
2022-09-03T20:26:27.102Z,24.27
2022-09-03T20:29:44.720Z,24.24
2022-09-03T20:32:38.536Z,24.24
2022-09-03T20:35:36.736Z,24.18
2022-09-03T20:38:55.127Z,24.08
2022-09-03T20:42:18.717Z,24.00
2022-09-03T20:44:57.349Z,23.97
2022-09-03T20:48:03.612Z,23.97
2022-09-03T20:50:56.517Z,23.91
2022-09-03T20:53:49.182Z,23.88
2022-09-03T20:57:05.718Z,23.82
2022-09-03T20:59:56.147Z,23.81
2022-09-03T21:02:51.773Z,23.80
2022-09-03T21:05:45.258Z,23.76
2022-09-03T21:08:36.697Z,23.68
2022-09-03T21:11:29.752Z,23.64
2022-09-03T21:14:50.697Z,23.56
2022-09-03T21:17:52.308Z,23.51
2022-09-03T21:20:45.467Z,23.50
2022-09-03T21:23:36.742Z,23.44
2022-09-03T21:26:28.392Z,23.44
2022-09-03T21:29:21.436Z,23.41
2022-09-03T21:32:05.854Z,23.36
2022-09-03T21:34:54.968Z,23.36
2022-09-03T21:37:23.891Z,23.28
2022-09-03T21:39:56.959Z,23.28
2022-09-03T21:42:46.348Z,23.26
2022-09-03T21:45:43.572Z,23.21
2022-09-03T21:48:26.623Z,23.14
2022-09-03T21:51:00.851Z,23.11
2022-09-03T21:53:48.141Z,23.13
2022-09-03T21:56:27.731Z,23.08
2022-09-03T21:59:23.768Z,23.07
2022-09-03T22:02:21.629Z,23.01
2022-09-03T22:04:51.014Z,22.97
2022-09-03T22:07:59.424Z,22.99
2022-09-03T22:11:06.936Z,22.96
2022-09-03T22:14:09.950Z,22.91
2022-09-03T22:17:10.902Z,22.89
2022-09-03T22:19:40.410Z,22.85
2022-09-03T22:22:44.362Z,22.82
2022-09-03T22:25:33.169Z,22.80
2022-09-03T22:28:42.339Z,22.78
2022-09-03T22:31:35.795Z,22.72
2022-09-03T22:34:38.814Z,22.67
2022-09-03T22:37:28.571Z,22.60
2022-09-03T22:40:28.462Z,22.69
2022-09-03T22:43:02.011Z,22.70
2022-09-03T22:45:59.119Z,22.73
2022-09-03T22:49:29.838Z,22.65
2022-09-03T22:52:19.938Z,22.62
2022-09-03T22:55:21.347Z,22.62
2022-09-03T22:58:08.815Z,22.55
2022-09-03T23:00:54.694Z,22.55
2022-09-03T23:04:19.903Z,22.47
2022-09-03T23:07:18.825Z,22.36
2022-09-03T23:10:23.088Z,22.40
2022-09-03T23:13:16.204Z,22.37
2022-09-03T23:16:01.228Z,22.33
2022-09-03T23:18:32.819Z,22.35
2022-09-03T23:21:16.348Z,22.37
2022-09-03T23:23:59.845Z,22.33
2022-09-03T23:26:44.455Z,22.32
2022-09-03T23:29:44.900Z,22.29
2022-09-03T23:32:12.869Z,22.25
2022-09-03T23:34:42.230Z,22.27
2022-09-03T23:37:39.409Z,22.26
2022-09-03T23:40:33.191Z,22.25
2022-09-03T23:43:17.301Z,22.23
2022-09-03T23:46:10.025Z,22.24
2022-09-03T23:49:16.054Z,22.19
2022-09-03T23:52:11.535Z,22.13
2022-09-03T23:55:09.181Z,22.13
2022-09-03T23:58:08.219Z,22.09
